Elbella — 9HA2358 — position and weather

sailwx.info

Track history (hours):
 
Tides and Currents Weather Stations Pressure Air Temp Water Temp Dewpoint Dewpoint Depression Visibility Wind Speed Wind Dir Waves Ship Positions

Elbella

Last reported at 2014-Aug-18 23:11 UTC. Time now 2014-Aug-21 16:03 UTC.
Position N 31°23' E 032°16'.

Length 176 m; draft 9.6 m.

Type: Ship (hazmat cat A). MMSI: 248422000.

Date/timePositionNaut miles runAvg speedWind from/ knotsBaromVisibWave heightAir tempDewpointWater temp
2014-Aug-18 23:11N 31°23' E 032°16'0 0.0
2014-Aug-18 22:33N 31°23' E 032°16'0 0.0
2014-Aug-18 21:33N 31°23' E 032°16'0 0.4
2014-Aug-18 20:28N 31°23' E 032°17'17 8.8
2014-Aug-18 18:31N 31°38' E 032°26'1410.4
2014-Aug-18 17:09N 31°48' E 032°37'1911.7
2014-Aug-18 15:30N 32°04' E 032°50'1411.8
2014-Aug-18 14:19N 32°16' E 032°60'5311.1
2014-Aug-18 09:34N 32°59' E 033°36'1111.1
2014-Aug-18 08:34N 33°05' E 033°47'3811.5
2014-Aug-18 05:13N 33°27' E 034°24'1311.7
2014-Aug-18 04:06N 33°35' E 034°37'611.7
2014-Aug-18 03:33N 33°39' E 034°43'1111.5
2014-Aug-18 02:34N 33°45' E 034°55'2311.3
2014-Aug-18 00:30N 33°56' E 035°19'11 1.8
2014-Aug-17 18:31N 33°55' E 035°32'3 0.1
2014-Aug-16 04:05N 33°57' E 035°34'0 0.0
2014-Aug-16 03:27N 33°57' E 035°34'0 0.0
2014-Aug-16 01:08N 33°57' E 035°34'22 3.4
2014-Aug-15 18:33N 33°58' E 035°07'1411.9
2014-Aug-15 17:20N 34°03' E 034°51'1312.1
2014-Aug-15 16:15N 34°08' E 034°37'912.3
2014-Aug-15 15:33N 34°11' E 034°27'1212.4
2014-Aug-15 14:33N 34°16' E 034°13'1212.5
2014-Aug-15 13:33N 34°21' E 033°59'1212.4
2014-Aug-15 12:33N 34°25' E 033°45'1212.0
2014-Aug-15 11:33N 34°30' E 033°32'1212.1
2014-Aug-15 10:33N 34°34' E 033°18'1212.0
2014-Aug-15 09:33N 34°39' E 033°05'3 3.0
2014-Aug-15 08:33N 34°39' E 033°01'0 0.0
2014-Aug-15 07:33N 34°39' E 033°01'0 0.0
2014-Aug-15 06:28N 34°39' E 033°01'0 0.0
2014-Aug-15 05:33N 34°39' E 033°01'0 0.0
2014-Aug-15 04:34N 34°39' E 033°01'0 0.3
2014-Aug-15 03:32N 34°39' E 033°01'4 4.5
2014-Aug-15 02:33N 34°39' E 033°07'9 8.6
2014-Aug-15 01:33N 34°39' E 033°17'1010.1
2014-Aug-15 00:33N 34°38' E 033°29'10 9.9
2014-Aug-14 23:34N 34°41' E 033°41'10 9.7
2014-Aug-14 22:31N 34°45' E 033°52'9 9.4
2014-Aug-14 21:34N 34°48' E 034°02'10 9.7
2014-Aug-14 20:33N 34°53' E 034°12'10 9.8
2014-Aug-14 19:32N 34°58' E 034°23'10 9.9
2014-Aug-14 18:33N 35°03' E 034°33'12 9.9
2014-Aug-14 17:22N 35°10' E 034°45'69 3.1
2014-Aug-13 19:07N 36°18' E 034°56'611.4
2014-Aug-13 18:33N 36°24' E 034°53'366 7.5
2014-Aug-11 17:32N 35°57' E 027°21'3612.0
2014-Aug-11 14:31N 36°08' E 026°38'1212.0
2014-Aug-11 13:33N 36°11' E 026°24'2511.9
2014-Aug-11 11:29N 36°07' E 025°54'1112.2
2014-Aug-11 10:33N 36°06' E 025°40'1212.3
2014-Aug-11 09:33N 36°04' E 025°25'1211.9
2014-Aug-11 08:33N 36°02' E 025°10'1211.9
2014-Aug-11 07:33N 36°00' E 024°56'1211.8
2014-Aug-11 06:33N 35°58' E 024°41'1212.1
2014-Aug-11 05:33N 35°56' E 024°27'1211.8
2014-Aug-11 04:33N 35°55' E 024°12'1212.1
2014-Aug-11 03:33N 35°53' E 023°57'1212.3
2014-Aug-11 02:33N 35°51' E 023°42'1211.6
2014-Aug-11 01:33N 35°46' E 023°29'40912.0
2014-Aug-09 15:31N 35°47' E 015°06'1112.0
2014-Aug-09 14:33N 35°48' E 014°51'1212.0
2014-Aug-09 13:33N 35°48' E 014°37'4 1.7
2014-Aug-09 11:25N 35°49' E 014°33'0 0.0
2014-Aug-09 10:33N 35°49' E 014°33'0 0.0
2014-Aug-09 09:32N 35°49' E 014°33'0 0.0
2014-Aug-09 08:25N 35°49' E 014°33'0 0.0
2014-Aug-09 07:26N 35°49' E 014°33'0 0.0
2014-Aug-09 06:23N 35°49' E 014°33'0 0.0
2014-Aug-09 05:33N 35°49' E 014°33'0 0.0
2014-Aug-09 04:33N 35°49' E 014°33'0 0.0
2014-Aug-09 03:17N 35°49' E 014°33'0 0.0
2014-Aug-09 02:33N 35°49' E 014°33'0 0.0
2014-Aug-09 01:33N 35°49' E 014°33'0 0.0
2014-Aug-09 00:33N 35°49' E 014°33'0 0.0
2014-Aug-08 23:33N 35°49' E 014°33'  
Track history (hours):
 
Tides and Currents Weather Stations Pressure Air Temp Water Temp Dewpoint Dewpoint Depression Visibility Wind Speed Wind Dir Waves Ship Positions

Elbella

Last reported at 2014-Aug-18 23:11 UTC. Time now 2014-Aug-21 16:03 UTC.
Position N 31°23' E 032°16'.

Length 176 m; draft 9.6 m.

Type: Ship (hazmat cat A). MMSI: 248422000.

Date/timePositionNaut miles runAvg speedWind from/ knotsBaromVisibWave heightAir tempDewpointWater temp
2014-Aug-18 23:11N 31°23' E 032°16'0 0.0
2014-Aug-18 22:33N 31°23' E 032°16'0 0.0
2014-Aug-18 21:33N 31°23' E 032°16'0 0.4
2014-Aug-18 20:28N 31°23' E 032°17'17 8.8
2014-Aug-18 18:31N 31°38' E 032°26'1410.4
2014-Aug-18 17:09N 31°48' E 032°37'1911.7
2014-Aug-18 15:30N 32°04' E 032°50'1411.8
2014-Aug-18 14:19N 32°16' E 032°60'5311.1
2014-Aug-18 09:34N 32°59' E 033°36'1111.1
2014-Aug-18 08:34N 33°05' E 033°47'3811.5
2014-Aug-18 05:13N 33°27' E 034°24'1311.7
2014-Aug-18 04:06N 33°35' E 034°37'611.7
2014-Aug-18 03:33N 33°39' E 034°43'1111.5
2014-Aug-18 02:34N 33°45' E 034°55'2311.3
2014-Aug-18 00:30N 33°56' E 035°19'11 1.8
2014-Aug-17 18:31N 33°55' E 035°32'3 0.1
2014-Aug-16 04:05N 33°57' E 035°34'0 0.0
2014-Aug-16 03:27N 33°57' E 035°34'0 0.0
2014-Aug-16 01:08N 33°57' E 035°34'22 3.4
2014-Aug-15 18:33N 33°58' E 035°07'1411.9
2014-Aug-15 17:20N 34°03' E 034°51'1312.1
2014-Aug-15 16:15N 34°08' E 034°37'912.3
2014-Aug-15 15:33N 34°11' E 034°27'1212.4
2014-Aug-15 14:33N 34°16' E 034°13'1212.5
2014-Aug-15 13:33N 34°21' E 033°59'1212.4
2014-Aug-15 12:33N 34°25' E 033°45'1212.0
2014-Aug-15 11:33N 34°30' E 033°32'1212.1
2014-Aug-15 10:33N 34°34' E 033°18'1212.0
2014-Aug-15 09:33N 34°39' E 033°05'3 3.0
2014-Aug-15 08:33N 34°39' E 033°01'0 0.0
2014-Aug-15 07:33N 34°39' E 033°01'0 0.0
2014-Aug-15 06:28N 34°39' E 033°01'0 0.0
2014-Aug-15 05:33N 34°39' E 033°01'0 0.0
2014-Aug-15 04:34N 34°39' E 033°01'0 0.3
2014-Aug-15 03:32N 34°39' E 033°01'4 4.5
2014-Aug-15 02:33N 34°39' E 033°07'9 8.6
2014-Aug-15 01:33N 34°39' E 033°17'1010.1
2014-Aug-15 00:33N 34°38' E 033°29'10 9.9
2014-Aug-14 23:34N 34°41' E 033°41'10 9.7
2014-Aug-14 22:31N 34°45' E 033°52'9 9.4
2014-Aug-14 21:34N 34°48' E 034°02'10 9.7
2014-Aug-14 20:33N 34°53' E 034°12'10 9.8
2014-Aug-14 19:32N 34°58' E 034°23'10 9.9
2014-Aug-14 18:33N 35°03' E 034°33'12 9.9
2014-Aug-14 17:22N 35°10' E 034°45'69 3.1
2014-Aug-13 19:07N 36°18' E 034°56'611.4
2014-Aug-13 18:33N 36°24' E 034°53'366 7.5
2014-Aug-11 17:32N 35°57' E 027°21'3612.0
2014-Aug-11 14:31N 36°08' E 026°38'1212.0
2014-Aug-11 13:33N 36°11' E 026°24'2511.9
2014-Aug-11 11:29N 36°07' E 025°54'1112.2
2014-Aug-11 10:33N 36°06' E 025°40'1212.3
2014-Aug-11 09:33N 36°04' E 025°25'1211.9
2014-Aug-11 08:33N 36°02' E 025°10'1211.9
2014-Aug-11 07:33N 36°00' E 024°56'1211.8
2014-Aug-11 06:33N 35°58' E 024°41'1212.1
2014-Aug-11 05:33N 35°56' E 024°27'1211.8
2014-Aug-11 04:33N 35°55' E 024°12'1212.1
2014-Aug-11 03:33N 35°53' E 023°57'1212.3
2014-Aug-11 02:33N 35°51' E 023°42'1211.6
2014-Aug-11 01:33N 35°46' E 023°29'40912.0
2014-Aug-09 15:31N 35°47' E 015°06'1112.0
2014-Aug-09 14:33N 35°48' E 014°51'1212.0
2014-Aug-09 13:33N 35°48' E 014°37'4 1.7
2014-Aug-09 11:25N 35°49' E 014°33'0 0.0
2014-Aug-09 10:33N 35°49' E 014°33'0 0.0
2014-Aug-09 09:32N 35°49' E 014°33'0 0.0
2014-Aug-09 08:25N 35°49' E 014°33'0 0.0
2014-Aug-09 07:26N 35°49' E 014°33'0 0.0
2014-Aug-09 06:23N 35°49' E 014°33'0 0.0
2014-Aug-09 05:33N 35°49' E 014°33'0 0.0
2014-Aug-09 04:33N 35°49' E 014°33'0 0.0
2014-Aug-09 03:17N 35°49' E 014°33'0 0.0
2014-Aug-09 02:33N 35°49' E 014°33'0 0.0
2014-Aug-09 01:33N 35°49' E 014°33'0 0.0
2014-Aug-09 00:33N 35°49' E 014°33'0 0.0
2014-Aug-08 23:33N 35°49' E 014°33'  

Dump ship's entire track history